createdAt,value
2018-05-13T00:01:57.595Z,19.81
2018-05-13T00:04:30.130Z,19.84
2018-05-13T00:07:02.627Z,19.86
2018-05-13T00:09:35.157Z,19.83
2018-05-13T00:12:07.702Z,19.77
2018-05-13T00:14:40.271Z,19.83
2018-05-13T00:17:12.782Z,19.63
2018-05-13T00:19:45.315Z,19.59
2018-05-13T00:22:17.825Z,19.54
2018-05-13T00:24:50.352Z,19.41
2018-05-13T00:27:22.861Z,19.39
2018-05-13T00:29:55.386Z,19.29
2018-05-13T00:32:27.892Z,19.35
2018-05-13T00:35:00.430Z,19.22
2018-05-13T00:37:32.946Z,19.18
2018-05-13T00:40:05.553Z,19.25
2018-05-13T00:42:38.069Z,19.26
2018-05-13T00:45:10.671Z,19.02
2018-05-13T00:47:43.191Z,19.01
2018-05-13T00:50:15.722Z,18.98
2018-05-13T00:52:48.226Z,18.91
2018-05-13T00:55:20.751Z,18.93
2018-05-13T00:57:53.257Z,18.86
2018-05-13T01:00:25.788Z,18.88
2018-05-13T01:02:58.301Z,19.05
2018-05-13T01:05:30.836Z,19.04
2018-05-13T01:08:03.351Z,18.99
2018-05-13T01:10:35.944Z,18.99
2018-05-13T01:13:08.450Z,19.01
2018-05-13T01:15:40.977Z,19.01
2018-05-13T01:18:13.493Z,18.99
2018-05-13T01:20:46.231Z,18.82
2018-05-13T01:23:18.740Z,18.66
2018-05-13T01:25:51.273Z,18.65
2018-05-13T01:28:23.786Z,18.77
2018-05-13T01:30:56.307Z,18.89
2018-05-13T01:33:28.836Z,18.79
2018-05-13T01:36:01.359Z,18.76
2018-05-13T01:38:33.887Z,18.61
2018-05-13T01:41:06.411Z,18.75
2018-05-13T01:43:38.944Z,18.72
2018-05-13T01:46:11.463Z,18.59
2018-05-13T01:48:43.995Z,18.51
2018-05-13T01:51:16.521Z,18.39
2018-05-13T01:53:49.049Z,18.44
2018-05-13T01:56:21.554Z,18.65
2018-05-13T01:58:54.082Z,18.60
2018-05-13T02:01:26.595Z,18.66
2018-05-13T02:03:59.117Z,18.53
2018-05-13T02:06:31.622Z,18.51
2018-05-13T02:09:04.148Z,18.47
2018-05-13T02:11:36.676Z,18.38
2018-05-13T02:14:09.213Z,18.45
2018-05-13T02:16:41.739Z,18.40
2018-05-13T02:19:14.265Z,18.27
2018-05-13T02:21:46.809Z,18.29
2018-05-13T02:24:19.361Z,18.21
2018-05-13T02:26:51.864Z,18.12
2018-05-13T02:29:24.389Z,18.07
2018-05-13T02:31:56.919Z,18.02
2018-05-13T02:34:29.450Z,17.89
2018-05-13T02:37:01.955Z,17.92
2018-05-13T02:39:34.487Z,18.00
2018-05-13T02:42:07.015Z,17.95
2018-05-13T02:44:39.539Z,17.92
2018-05-13T02:47:12.064Z,17.98
2018-05-13T02:49:44.608Z,18.01
2018-05-13T02:52:17.105Z,17.92
2018-05-13T02:54:49.648Z,17.85
2018-05-13T02:57:22.166Z,17.94
2018-05-13T02:59:54.714Z,18.04
2018-05-13T03:02:27.287Z,17.99
2018-05-13T03:04:59.815Z,17.90
2018-05-13T03:07:32.334Z,17.88
2018-05-13T03:10:04.910Z,17.78
2018-05-13T03:12:37.437Z,17.84
2018-05-13T03:15:10.030Z,17.84
2018-05-13T03:17:42.560Z,17.88
2018-05-13T03:20:15.089Z,17.83
2018-05-13T03:22:47.601Z,17.78
2018-05-13T03:25:20.121Z,17.73
2018-05-13T03:27:52.625Z,17.75
2018-05-13T03:30:25.156Z,17.68
2018-05-13T03:32:57.708Z,17.79
2018-05-13T03:35:30.237Z,17.77
2018-05-13T03:38:02.738Z,17.75
2018-05-13T03:40:35.284Z,17.61
2018-05-13T03:43:07.789Z,17.65
2018-05-13T03:45:40.328Z,17.74
2018-05-13T03:48:12.841Z,17.76
2018-05-13T03:50:45.397Z,17.81
2018-05-13T03:53:17.895Z,17.75
2018-05-13T03:55:50.436Z,17.74
2018-05-13T03:58:22.960Z,17.71
2018-05-13T04:00:55.486Z,17.78
2018-05-13T04:03:27.998Z,17.69
2018-05-13T04:06:00.533Z,17.73
2018-05-13T04:08:53.693Z,17.70
2018-05-13T04:11:38.032Z,17.73
2018-05-13T04:14:22.400Z,17.73
2018-05-13T04:16:54.935Z,17.79
2018-05-13T04:19:27.464Z,17.79
2018-05-13T04:21:59.985Z,17.83
2018-05-13T04:24:32.503Z,17.88
2018-05-13T04:27:05.086Z,17.89
2018-05-13T04:29:37.887Z,17.84
2018-05-13T04:32:10.432Z,17.94
2018-05-13T04:34:42.973Z,18.07
2018-05-13T04:37:15.856Z,18.11
2018-05-13T04:39:48.402Z,18.24
2018-05-13T04:42:20.935Z,18.30
2018-05-13T04:44:53.466Z,18.42
2018-05-13T04:47:26.017Z,18.51
2018-05-13T04:49:58.525Z,18.65
2018-05-13T04:52:31.049Z,18.70
2018-05-13T04:55:03.562Z,18.79
2018-05-13T04:57:36.602Z,18.95
2018-05-13T05:00:09.187Z,18.82
2018-05-13T05:02:41.708Z,18.83
2018-05-13T05:05:14.228Z,18.90
2018-05-13T05:07:46.747Z,18.98
2018-05-13T05:10:19.285Z,19.10
2018-05-13T05:12:51.797Z,19.27
2018-05-13T05:15:24.332Z,19.30
2018-05-13T05:17:56.847Z,19.42
2018-05-13T05:20:29.376Z,19.41
2018-05-13T05:23:01.882Z,19.36
2018-05-13T05:25:34.485Z,19.24
2018-05-13T05:28:06.985Z,19.18
2018-05-13T05:30:39.540Z,19.53
2018-05-13T05:33:12.058Z,19.72
2018-05-13T05:35:44.696Z,19.81
2018-05-13T05:38:17.156Z,19.87
2018-05-13T05:40:49.686Z,19.47
2018-05-13T05:43:22.189Z,19.77
2018-05-13T05:45:54.726Z,19.89
2018-05-13T05:48:27.259Z,20.00
2018-05-13T05:50:59.785Z,20.29
2018-05-13T05:53:32.297Z,20.38
2018-05-13T05:56:04.836Z,20.65
2018-05-13T05:58:37.340Z,20.52
2018-05-13T06:01:10.238Z,20.54
2018-05-13T06:03:42.829Z,20.54
2018-05-13T06:06:15.368Z,20.82
2018-05-13T06:08:47.986Z,21.02
2018-05-13T06:11:20.510Z,21.12
2018-05-13T06:13:53.020Z,21.06
2018-05-13T06:16:25.555Z,21.17
2018-05-13T06:18:58.057Z,21.28
2018-05-13T06:21:30.581Z,21.17
2018-05-13T06:24:03.084Z,21.47
2018-05-13T06:26:35.674Z,21.65
2018-05-13T06:29:08.231Z,21.77
2018-05-13T06:31:40.769Z,22.13
2018-05-13T06:34:13.291Z,22.31
2018-05-13T06:36:46.285Z,22.59
2018-05-13T06:39:18.808Z,22.85
2018-05-13T06:41:51.331Z,22.90
2018-05-13T06:44:23.841Z,23.24
2018-05-13T06:46:56.366Z,23.40
2018-05-13T06:49:28.882Z,23.54
2018-05-13T06:52:01.409Z,23.53
2018-05-13T06:54:33.958Z,23.50
2018-05-13T06:57:06.500Z,23.62
2018-05-13T06:59:39.149Z,23.72
2018-05-13T07:02:11.787Z,24.02
2018-05-13T07:04:44.386Z,24.09
2018-05-13T07:07:16.922Z,24.14
2018-05-13T07:09:49.432Z,23.79
2018-05-13T07:12:21.971Z,23.80
2018-05-13T07:14:54.477Z,23.92
2018-05-13T07:17:27.018Z,24.08
2018-05-13T07:19:59.522Z,24.07
2018-05-13T07:22:32.040Z,23.91
2018-05-13T07:25:04.554Z,23.96
2018-05-13T07:27:37.335Z,24.17
2018-05-13T07:30:09.839Z,24.52
2018-05-13T07:32:42.411Z,24.56
2018-05-13T07:35:14.928Z,24.89
2018-05-13T07:37:47.658Z,25.01
2018-05-13T07:40:20.179Z,25.39
2018-05-13T07:45:31.368Z,25.56
2018-05-13T07:48:03.906Z,25.65
2018-05-13T07:50:36.837Z,25.88
2018-05-13T07:53:09.373Z,25.90
2018-05-13T07:55:41.899Z,25.61
2018-05-13T07:58:14.455Z,25.92
2018-05-13T08:00:46.985Z,25.87
2018-05-13T08:03:19.521Z,25.89
2018-05-13T08:05:52.031Z,26.24
2018-05-13T08:08:24.561Z,26.48
2018-05-13T08:10:57.088Z,26.34
2018-05-13T08:13:29.615Z,26.52
2018-05-13T08:16:02.131Z,26.25
2018-05-13T08:18:34.878Z,26.02
2018-05-13T08:21:07.585Z,26.08
2018-05-13T08:23:40.123Z,26.09
2018-05-13T08:26:13.492Z,26.30
2018-05-13T08:28:46.005Z,26.48
2018-05-13T08:31:18.530Z,26.21
2018-05-13T08:33:51.104Z,26.75
2018-05-13T08:36:23.649Z,27.14
2018-05-13T08:38:56.161Z,27.28
2018-05-13T08:41:28.711Z,27.50
2018-05-13T08:44:01.245Z,27.50
2018-05-13T08:46:33.780Z,27.67
2018-05-13T08:49:08.422Z,27.57
2018-05-13T08:51:40.996Z,28.08
2018-05-13T08:54:13.548Z,28.27
2018-05-13T08:56:46.110Z,28.20
2018-05-13T08:59:18.619Z,28.01
2018-05-13T09:01:51.149Z,27.71
2018-05-13T09:04:23.675Z,27.70
2018-05-13T09:06:56.208Z,27.64
2018-05-13T09:09:28.720Z,28.05
2018-05-13T09:12:01.265Z,28.36
2018-05-13T09:14:33.785Z,29.07
2018-05-13T09:17:06.327Z,29.63
2018-05-13T09:19:39.076Z,29.57
2018-05-13T09:22:11.633Z,30.53
2018-05-13T09:24:44.141Z,30.46
2018-05-13T09:27:16.806Z,31.02
2018-05-13T09:29:49.517Z,30.66
2018-05-13T09:32:22.045Z,30.60
2018-05-13T09:34:54.545Z,30.11
2018-05-13T09:37:27.071Z,30.14
2018-05-13T09:39:59.579Z,30.42
2018-05-13T09:42:32.109Z,31.32
2018-05-13T09:45:04.617Z,31.56
2018-05-13T09:47:37.796Z,30.96
2018-05-13T09:50:10.457Z,30.66
2018-05-13T09:52:43.010Z,30.57
2018-05-13T09:55:15.681Z,30.29
2018-05-13T09:57:48.211Z,29.99
2018-05-13T10:00:20.740Z,30.22
2018-05-13T10:02:53.285Z,29.92
2018-05-13T10:05:25.795Z,29.71
2018-05-13T10:07:58.319Z,29.58
2018-05-13T10:10:30.811Z,29.62
2018-05-13T10:13:03.328Z,29.80
2018-05-13T10:15:35.871Z,30.08
2018-05-13T10:18:08.546Z,30.01
2018-05-13T10:20:41.049Z,29.90
2018-05-13T10:23:13.576Z,30.05
2018-05-13T10:25:46.076Z,30.17
2018-05-13T10:28:18.602Z,29.91
2018-05-13T10:30:51.108Z,29.88
2018-05-13T10:33:23.645Z,30.05
2018-05-13T10:35:56.152Z,30.21
2018-05-13T10:38:28.977Z,29.90
2018-05-13T10:41:01.658Z,29.57
2018-05-13T10:43:34.236Z,29.71
2018-05-13T10:46:06.812Z,29.78
2018-05-13T10:48:39.334Z,29.90
2018-05-13T10:51:11.827Z,29.77
2018-05-13T10:53:45.215Z,30.07
2018-05-13T10:56:17.723Z,30.37
2018-05-13T10:58:50.253Z,30.27
2018-05-13T11:01:22.758Z,30.65
2018-05-13T11:03:55.284Z,30.72
2018-05-13T11:06:27.807Z,30.89
2018-05-13T11:09:00.334Z,30.70
2018-05-13T11:11:32.840Z,29.85
2018-05-13T11:14:05.504Z,30.19
2018-05-13T11:16:38.006Z,30.07
2018-05-13T11:19:10.640Z,30.04
2018-05-13T11:21:43.171Z,30.63
2018-05-13T11:24:15.760Z,30.76
2018-05-13T11:26:48.283Z,31.20
2018-05-13T11:29:20.826Z,31.91
2018-05-13T11:31:53.339Z,32.22
2018-05-13T11:34:25.923Z,32.19
2018-05-13T11:36:58.440Z,32.22
2018-05-13T11:39:30.966Z,32.60
2018-05-13T11:42:03.460Z,31.93
2018-05-13T11:44:36.289Z,31.53
2018-05-13T11:47:08.813Z,31.27
2018-05-13T11:49:41.381Z,31.46
2018-05-13T11:52:14.048Z,31.77
2018-05-13T11:54:46.571Z,31.24
2018-05-13T11:57:19.085Z,31.18
2018-05-13T11:59:51.597Z,31.75
2018-05-13T12:02:24.183Z,32.06
2018-05-13T12:04:56.644Z,31.98
2018-05-13T12:07:29.169Z,31.62
2018-05-13T12:10:01.670Z,31.03
2018-05-13T12:12:34.200Z,31.52
2018-05-13T12:15:06.815Z,31.50
2018-05-13T12:17:39.386Z,30.78
2018-05-13T12:20:12.437Z,30.92
2018-05-13T12:22:45.173Z,30.65
2018-05-13T12:25:17.673Z,30.51
2018-05-13T12:27:50.219Z,29.97
2018-05-13T12:30:22.727Z,29.84
2018-05-13T12:32:55.251Z,30.37
2018-05-13T12:35:27.752Z,30.49
2018-05-13T12:38:00.335Z,30.60
2018-05-13T12:40:32.816Z,30.91
2018-05-13T12:43:05.429Z,30.82
2018-05-13T12:45:37.965Z,30.60
2018-05-13T12:48:10.516Z,30.55
2018-05-13T12:50:43.070Z,30.54
2018-05-13T12:53:15.583Z,30.92
2018-05-13T12:55:48.090Z,30.11
2018-05-13T12:58:20.619Z,29.92
2018-05-13T13:00:53.126Z,29.76
2018-05-13T13:03:25.656Z,29.30
2018-05-13T13:05:58.160Z,29.03
2018-05-13T13:08:30.686Z,29.17
2018-05-13T13:11:03.179Z,29.52
2018-05-13T13:13:35.707Z,29.39
2018-05-13T13:16:08.208Z,29.32
2018-05-13T13:18:40.735Z,29.28
2018-05-13T13:21:13.241Z,29.16
2018-05-13T13:23:45.777Z,29.53
2018-05-13T13:26:18.280Z,29.38
2018-05-13T13:28:50.817Z,29.27
2018-05-13T13:31:23.319Z,28.99
2018-05-13T13:33:55.836Z,29.04
2018-05-13T13:36:28.336Z,29.28
2018-05-13T13:39:00.851Z,29.39
2018-05-13T13:41:33.351Z,29.55
2018-05-13T13:44:06.445Z,29.47
2018-05-13T13:46:39.089Z,29.28
2018-05-13T13:49:11.611Z,29.17
2018-05-13T13:51:44.119Z,29.06
2018-05-13T13:54:16.841Z,29.03
2018-05-13T13:56:49.348Z,29.21
2018-05-13T13:59:21.932Z,30.35
2018-05-13T14:01:54.408Z,31.48
2018-05-13T14:04:26.946Z,31.32
2018-05-13T14:06:59.445Z,30.93
2018-05-13T14:09:31.968Z,30.34
2018-05-13T14:12:04.593Z,30.39
2018-05-13T14:14:37.094Z,30.22
2018-05-13T14:17:09.972Z,30.14
2018-05-13T14:19:42.817Z,30.21
2018-05-13T14:22:15.331Z,29.90
2018-05-13T14:24:47.869Z,29.72
2018-05-13T14:27:20.381Z,29.96
2018-05-13T14:29:52.902Z,29.84
2018-05-13T14:32:25.428Z,29.98
2018-05-13T14:34:58.095Z,30.02
2018-05-13T14:37:30.596Z,30.01
2018-05-13T14:40:03.121Z,29.90
2018-05-13T14:42:35.924Z,29.70
2018-05-13T14:45:08.945Z,29.59
2018-05-13T14:47:41.506Z,29.70
2018-05-13T14:50:14.145Z,29.51
2018-05-13T14:52:46.639Z,29.28
2018-05-13T14:55:19.168Z,29.60
2018-05-13T14:57:51.668Z,29.29
2018-05-13T15:00:24.187Z,29.39
2018-05-13T15:02:56.760Z,29.36
2018-05-13T15:05:29.259Z,28.90
2018-05-13T15:08:01.779Z,29.44
2018-05-13T15:10:35.386Z,29.41
2018-05-13T15:13:07.885Z,29.19
2018-05-13T15:15:40.649Z,29.16
2018-05-13T15:18:13.150Z,29.04
2018-05-13T15:20:45.662Z,29.10
2018-05-13T15:23:18.169Z,29.14
2018-05-13T15:25:50.700Z,29.17
2018-05-13T15:28:23.240Z,28.84
2018-05-13T15:30:55.744Z,28.86
2018-05-13T15:33:28.271Z,28.88
2018-05-13T15:36:00.783Z,28.92
2018-05-13T15:38:33.305Z,28.92
2018-05-13T15:41:06.000Z,28.89
2018-05-13T15:43:38.545Z,29.15
2018-05-13T15:46:11.457Z,29.09
2018-05-13T15:48:43.979Z,28.84
2018-05-13T15:51:16.541Z,28.84
2018-05-13T15:53:49.100Z,28.86
2018-05-13T15:56:21.600Z,28.92
2018-05-13T15:58:54.126Z,28.99
2018-05-13T16:01:26.642Z,28.83
2018-05-13T16:03:59.173Z,28.84
2018-05-13T16:06:31.743Z,28.71
2018-05-13T16:09:04.852Z,28.89
2018-05-13T16:11:37.518Z,28.82
2018-05-13T16:14:10.046Z,28.90
2018-05-13T16:16:42.689Z,28.55
2018-05-13T16:19:15.220Z,28.70
2018-05-13T16:21:48.029Z,28.77
2018-05-13T16:24:20.546Z,28.84
2018-05-13T16:26:53.059Z,28.53
2018-05-13T16:29:25.629Z,28.57
2018-05-13T16:31:58.117Z,28.29
2018-05-13T16:34:30.634Z,28.40
2018-05-13T16:37:03.151Z,28.41
2018-05-13T16:39:35.683Z,28.27
2018-05-13T16:42:08.382Z,28.30
2018-05-13T16:44:40.924Z,28.37
2018-05-13T16:47:13.429Z,28.35
2018-05-13T16:49:46.117Z,28.43
2018-05-13T16:52:19.463Z,28.39
2018-05-13T16:54:52.000Z,28.40
2018-05-13T16:57:24.513Z,28.18
2018-05-13T16:59:57.041Z,28.24
2018-05-13T17:02:29.641Z,28.18
2018-05-13T17:05:02.084Z,28.14
2018-05-13T17:07:35.680Z,28.26
2018-05-13T17:10:08.209Z,28.27
2018-05-13T17:12:40.728Z,28.22
2018-05-13T17:15:13.245Z,28.29
2018-05-13T17:17:45.745Z,28.38
2018-05-13T17:20:18.264Z,28.32
2018-05-13T17:22:50.765Z,28.58
2018-05-13T17:25:23.278Z,28.58
2018-05-13T17:27:55.889Z,28.56
2018-05-13T17:30:28.418Z,28.27
2018-05-13T17:33:00.917Z,28.22
2018-05-13T17:35:33.505Z,28.04
2018-05-13T17:38:05.967Z,28.01
2018-05-13T17:40:38.488Z,27.77
2018-05-13T17:43:11.437Z,27.71
2018-05-13T17:45:43.989Z,27.66
2018-05-13T17:48:16.489Z,27.59
2018-05-13T17:50:49.007Z,27.52
2018-05-13T17:53:21.505Z,27.42
2018-05-13T17:55:54.017Z,27.33
2018-05-13T17:58:26.522Z,27.32
2018-05-13T18:00:59.088Z,27.36
2018-05-13T18:03:31.584Z,27.24
2018-05-13T18:06:04.099Z,26.96
2018-05-13T18:08:36.609Z,27.03
2018-05-13T18:11:09.148Z,27.01
2018-05-13T18:13:41.671Z,26.92
2018-05-13T18:16:14.206Z,26.88
2018-05-13T18:18:46.729Z,26.89
2018-05-13T18:21:19.261Z,26.83
2018-05-13T18:23:51.760Z,26.70
2018-05-13T18:26:24.280Z,26.50
2018-05-13T18:28:56.781Z,26.54
2018-05-13T18:31:29.305Z,26.47
2018-05-13T18:34:01.804Z,26.50
2018-05-13T18:36:34.359Z,26.41
2018-05-13T18:39:07.033Z,26.34
2018-05-13T18:41:39.449Z,26.12
2018-05-13T18:44:11.953Z,26.14
2018-05-13T18:46:44.472Z,26.04
2018-05-13T18:49:16.981Z,25.95
2018-05-13T18:51:49.504Z,25.69
2018-05-13T18:54:21.997Z,25.68
2018-05-13T18:56:54.536Z,25.71
2018-05-13T18:59:27.033Z,25.59
2018-05-13T19:01:59.553Z,25.43
2018-05-13T19:04:32.061Z,25.38
2018-05-13T19:07:04.612Z,25.23
2018-05-13T19:09:37.387Z,25.13
2018-05-13T19:12:10.135Z,25.04
2018-05-13T19:14:42.701Z,24.93
2018-05-13T19:17:15.314Z,24.81
2018-05-13T19:19:47.854Z,24.71
2018-05-13T19:22:20.364Z,24.58
2018-05-13T19:24:52.965Z,24.52
2018-05-13T19:27:25.404Z,24.47
2018-05-13T19:29:57.921Z,24.30
2018-05-13T19:32:30.422Z,24.22
2018-05-13T19:35:03.297Z,24.08
2018-05-13T19:37:35.796Z,24.00
2018-05-13T19:40:08.331Z,23.91
2018-05-13T19:42:40.829Z,23.75
2018-05-13T19:45:13.473Z,23.61
2018-05-13T19:47:45.970Z,23.50
2018-05-13T19:50:18.487Z,23.37
2018-05-13T19:52:50.982Z,23.30
2018-05-13T19:55:23.501Z,23.29
2018-05-13T19:57:55.985Z,23.20
2018-05-13T20:00:28.499Z,23.03
2018-05-13T20:03:01.068Z,23.03
2018-05-13T20:05:33.589Z,22.96
2018-05-13T20:08:07.080Z,22.84
2018-05-13T20:10:39.607Z,22.66
2018-05-13T20:13:12.106Z,22.62
2018-05-13T20:15:44.623Z,22.55
2018-05-13T20:18:17.144Z,22.49
2018-05-13T20:20:49.653Z,22.36
2018-05-13T20:23:25.924Z,22.24
2018-05-13T20:25:58.433Z,22.07
2018-05-13T20:28:30.937Z,21.99
2018-05-13T20:31:03.664Z,21.85
2018-05-13T20:33:36.223Z,21.72
2018-05-13T20:36:09.773Z,21.67
2018-05-13T20:38:42.315Z,21.54
2018-05-13T20:41:14.850Z,21.48
2018-05-13T20:43:47.355Z,21.40
2018-05-13T20:46:19.871Z,21.33
2018-05-13T20:48:52.375Z,21.24
2018-05-13T20:51:24.897Z,21.07
2018-05-13T20:53:57.425Z,20.99
2018-05-13T20:56:29.994Z,20.89
2018-05-13T20:59:02.479Z,20.81
2018-05-13T21:01:35.025Z,20.75
2018-05-13T21:04:07.555Z,20.62
2018-05-13T21:06:40.111Z,20.47
2018-05-13T21:09:12.651Z,20.46
2018-05-13T21:11:45.286Z,20.48
2018-05-13T21:14:17.782Z,20.49
2018-05-13T21:16:50.378Z,20.48
2018-05-13T21:19:23.272Z,20.44
2018-05-13T21:21:55.847Z,20.35
2018-05-13T21:24:28.364Z,20.34
2018-05-13T21:27:01.267Z,20.34
2018-05-13T21:29:33.813Z,20.28
2018-05-13T21:32:07.290Z,20.21
2018-05-13T21:34:40.272Z,20.15
2018-05-13T21:37:12.793Z,20.02
2018-05-13T21:39:45.475Z,19.96
2018-05-13T21:42:18.050Z,19.87
2018-05-13T21:44:50.546Z,19.82
2018-05-13T21:47:23.074Z,19.75
2018-05-13T21:49:55.711Z,19.64
2018-05-13T21:52:28.382Z,19.54
2018-05-13T21:55:00.884Z,19.45
2018-05-13T21:57:33.877Z,19.39
2018-05-13T22:00:06.939Z,19.36
2018-05-13T22:02:39.478Z,19.33
2018-05-13T22:05:12.289Z,19.27
2018-05-13T22:07:44.978Z,19.25
2018-05-13T22:10:17.483Z,19.23
2018-05-13T22:12:49.999Z,19.18
2018-05-13T22:15:22.564Z,19.03
2018-05-13T22:17:55.079Z,18.97
2018-05-13T22:20:27.592Z,18.90
2018-05-13T22:23:00.106Z,18.80
2018-05-13T22:25:32.605Z,18.77
2018-05-13T22:28:06.268Z,18.70
2018-05-13T22:30:39.342Z,18.55
2018-05-13T22:33:11.857Z,18.55
2018-05-13T22:35:45.851Z,18.52
2018-05-13T22:38:18.469Z,18.41
2018-05-13T22:40:51.291Z,18.34
2018-05-13T22:43:23.837Z,18.28
2018-05-13T22:45:56.414Z,18.22
2018-05-13T22:48:28.944Z,18.13
2018-05-13T22:51:01.482Z,18.09
2018-05-13T22:53:33.975Z,18.13
2018-05-13T22:56:06.647Z,18.20
2018-05-13T22:58:39.218Z,18.23
2018-05-13T23:01:11.855Z,18.20
2018-05-13T23:03:44.370Z,18.13
2018-05-13T23:06:16.948Z,18.11
2018-05-13T23:08:49.461Z,17.97
2018-05-13T23:11:23.085Z,17.95
2018-05-13T23:13:55.625Z,17.80
2018-05-13T23:16:28.166Z,17.79
2018-05-13T23:19:00.900Z,17.68
2018-05-13T23:21:33.429Z,17.58
2018-05-13T23:24:05.931Z,17.46
2018-05-13T23:26:38.648Z,17.37
2018-05-13T23:29:11.261Z,17.26
2018-05-13T23:31:43.813Z,17.30
2018-05-13T23:34:16.428Z,17.36
2018-05-13T23:36:48.955Z,17.35
2018-05-13T23:39:21.454Z,17.28
2018-05-13T23:41:53.971Z,17.28
2018-05-13T23:44:26.472Z,17.18
2018-05-13T23:46:58.995Z,17.03
2018-05-13T23:49:31.488Z,16.94
2018-05-13T23:52:04.011Z,16.94
2018-05-13T23:54:36.611Z,16.88
2018-05-13T23:57:09.261Z,16.88
2018-05-13T23:59:41.766Z,16.83
